Terminal Aerodrome Forecast
Issued by NWS Sterling, VA

Current Version | Previous Version | Graphics & Text | Print | Product List | Glossary On
Versions: 1 2 3 4 5 6 7 8 9 10 11 12 13 14 15 16 17 18 19 20 21 22 23 24 25
000
FTUS41 KLWX 142330
TAFDCA
TAF
KDCA 142330Z 1500/1524 13005KT P6SM OVC050
     FM150800 VRB03KT P6SM OVC020
     FM150900 00000KT P6SM -RA OVC015
     FM151000 00000KT 5SM -RA BR OVC008
     FM151600 VRB03KT P6SM -RA OVC010
     FM151900 VRB03KT P6SM BKN035=

USA.gov is the U.S. government's official web portal to all federal, state and local government web resources and services.